Date,TemperatureHighF,TemperatureAvgF,TemperatureLowF,DewpointHighF,DewpointAvgF,DewpointLowF,HumidityHigh,HumidityAvg,HumidityLow,PressureMaxIn,PressureMinIn,WindSpeedMaxMPH,WindSpeedAvgMPH,GustSpeedMaxMPH,PrecipitationSumIn
2013-1-1,58.4,42.2,31.2,40.0,32.6,28.0,97,73,34,30.28,30.19,6,1,12,0.01
2013-1-2,56.4,40.0,28.8,41.0,33.6,27.0,95,79,54,30.25,30.13,7,1,11,0.00
2013-1-3,58.0,40.0,28.3,42.0,34.4,27.0,96,82,52,30.28,30.17,6,0,6,0.00
2013-1-4,57.6,42.8,32.4,44.0,37.4,31.0,96,83,58,30.30,30.18,4,0,8,0.00
2013-1-5,51.1,42.5,33.3,46.0,40.4,32.0,96,92,79,30.26,30.06,4,0,8,0.34
2013-1-6,56.9,47.0,39.4,46.0,43.2,38.0,96,87,64,30.20,30.06,5,1,7,0.02
2013-1-7,62.8,47.0,35.3,51.0,43.0,34.0,97,87,62,30.26,30.15,4,0,7,0.00
2013-1-8,61.8,47.3,37.3,51.0,44.3,37.0,98,90,67,30.24,30.12,4,0,6,0.01
2013-1-9,51.9,44.5,39.4,49.0,42.1,35.0,98,91,74,30.16,29.98,4,0,15,0.03
2013-1-10,51.6,42.2,34.2,38.0,33.9,32.0,93,74,48,30.21,30.08,8,1,16,0.00
2013-1-11,54.5,42.9,36.5,42.0,35.1,31.0,85,74,56,30.26,30.12,7,1,10,0.00
2013-1-12,52.4,40.4,29.4,35.0,30.7,26.0,93,71,38,30.25,30.14,5,1,7,0.00
2013-1-13,53.5,37.6,24.1,35.0,27.8,12.0,94,71,27,30.27,30.18,8,1,19,0.00
2013-1-14,57.8,42.9,30.4,34.0,23.8,10.0,87,51,24,30.40,30.23,10,2,20,0.00
2013-1-15,54.9,39.1,28.6,38.0,32.5,27.0,94,79,49,30.49,30.39,7,1,9,0.00
2013-1-16,60.4,41.1,27.8,41.0,33.5,26.0,95,77,42,30.45,30.27,2,0,7,0.00
2013-1-17,63.5,42.1,27.5,44.0,35.5,27.0,96,80,46,30.28,30.15,4,0,7,0.00
2013-1-18,63.8,43.6,28.8,46.0,36.8,28.0,96,80,50,30.24,30.13,3,0,7,0.01
2013-1-19,63.9,44.7,29.1,44.0,36.7,28.0,95,76,47,30.26,30.15,4,0,8,0.00
2013-1-20,63.9,44.2,29.9,43.0,35.5,28.0,95,75,44,30.24,30.12,8,0,10,0.00
2013-1-21,64.7,45.1,30.3,45.0,37.0,29.0,95,76,48,30.18,30.08,6,0,8,0.00
2013-1-22,63.4,46.0,32.1,45.0,38.2,30.0,95,76,51,30.12,29.98,6,0,8,0.00
2013-1-23,52.0,49.2,47.6,49.0,45.5,42.0,97,87,72,30.09,29.95,4,0,7,0.44
2013-1-24,60.6,52.4,48.0,55.0,50.6,47.0,98,94,79,30.19,30.07,3,0,6,0.01
2013-1-25,64.1,54.7,49.0,57.0,52.0,48.0,98,91,74,30.19,30.04,3,0,6,0.00
2013-1-26,59.0,49.9,41.0,49.0,43.4,37.0,100,81,47,30.08,29.96,8,1,18,0.01
2013-1-27,57.6,46.2,35.3,39.0,36.7,33.0,92,72,42,30.18,30.06,9,1,13,0.00
2013-1-28,58.8,48.1,39.7,42.0,39.4,36.0,89,73,51,30.29,30.17,7,2,14,0.00
2013-1-29,64.9,51.4,41.1,48.0,41.6,37.0,87,71,45,30.36,30.27,8,1,13,0.00
2013-1-30,68.3,51.4,39.0,51.0,43.6,37.0,96,76,47,30.34,30.25,4,1,8,0.00
2013-1-31,67.3,49.1,35.4,51.0,43.1,35.0,98,82,54,30.30,30.18,7,1,10,0.00
2013-2-1,69.2,50.2,35.1,52.0,44.1,35.0,99,82,54,30.21,30.11,6,1,9,0.00
2013-2-2,59.9,47.3,40.7,52.0,45.1,40.0,99,92,75,30.31,30.21,7,1,11,0.00
2013-2-3,60.9,48.7,39.6,51.0,45.5,39.0,99,90,66,30.25,30.14,8,1,10,0.01
2013-2-4,55.3,45.3,39.9,51.0,44.0,39.0,99,95,83,30.18,30.07,7,1,10,0.00
2013-2-5,63.5,49.9,44.3,51.0,45.9,41.0,98,87,62,30.16,30.04,8,1,14,0.01
2013-2-6,60.1,47.6,37.0,47.0,41.2,36.0,97,80,52,30.21,30.10,9,1,12,0.00
2013-2-7,56.0,47.5,38.6,48.0,41.5,35.0,98,82,47,30.16,30.00,13,2,14,0.13
2013-2-8,59.3,45.7,34.6,41.0,37.1,33.0,99,75,38,30.03,29.93,8,2,13,0.00
2013-2-9,61.0,45.7,32.1,38.0,32.8,28.0,90,64,35,30.10,30.01,11,2,13,0.00
2013-2-10,63.9,44.6,29.8,48.0,36.1,28.0,93,74,43,30.13,30.01,8,1,13,0.00
2013-2-11,68.2,50.1,36.6,42.0,36.4,29.0,90,63,29,30.23,30.09,10,1,13,0.00
2013-2-12,62.4,45.7,32.8,49.0,41.3,32.0,99,86,55,30.36,30.23,6,1,9,0.00
2013-2-13,65.1,46.9,33.2,48.0,40.9,33.0,98,82,51,30.35,30.21,7,1,11,0.00
2013-2-14,70.2,50.6,36.0,52.0,43.4,36.0,98,79,50,30.25,30.16,10,1,13,0.00
2013-2-15,72.1,53.0,36.7,50.0,43.7,35.0,96,74,45,30.27,30.21,8,1,12,0.00
2013-2-16,71.1,51.3,39.6,50.0,43.7,38.0,97,78,40,30.25,30.05,7,1,13,0.00
2013-2-17,63.7,47.1,34.7,48.0,40.2,34.0,99,80,48,30.06,29.97,10,1,12,0.00
2013-2-18,54.6,44.8,35.8,45.0,40.4,35.0,97,85,69,30.02,29.92,8,2,12,0.00
2013-2-19,51.4,43.6,36.9,44.0,37.8,33.0,98,81,55,29.96,29.74,9,2,16,0.23
2013-2-20,60.9,46.4,33.5,39.0,35.4,30.0,92,69,38,30.06,29.86,10,1,16,0.00
2013-2-21,64.4,50.1,36.6,43.0,37.2,31.0,89,64,30,30.17,30.06,7,2,12,0.00
2013-2-22,63.3,49.8,35.8,47.0,40.9,34.0,92,73,41,30.25,30.16,10,2,13,0.00
2013-2-23,60.9,50.7,43.1,45.0,36.8,31.0,95,62,34,30.27,30.17,9,2,16,0.00
2013-2-24,68.6,50.1,38.1,37.0,33.8,26.0,82,57,20,30.27,30.15,11,2,15,0.00
2013-2-25,69.7,49.6,35.8,47.0,38.7,26.0,94,71,20,30.27,30.14,11,1,15,0.00
2013-2-26,70.8,50.8,35.9,41.0,36.1,30.0,89,61,23,30.22,30.14,11,2,13,0.00
2013-2-27,69.1,50.5,34.8,47.0,39.9,33.0,96,71,35,30.36,30.21,8,1,13,0.00
2013-2-28,68.8,55.9,46.0,56.0,50.0,44.0,96,82,61,30.44,30.36,10,2,17,0.00
2013-3-1,74.3,55.4,40.6,56.0,48.6,40.0,99,81,50,30.43,30.24,7,1,10,0.00
2013-3-2,71.2,56.1,45.9,57.0,50.1,45.0,96,81,56,30.25,30.05,7,1,10,0.00
2013-3-3,64.3,52.8,46.1,53.0,48.7,45.0,96,87,64,30.09,30.02,13,3,19,0.00
2013-3-4,58.0,47.5,39.9,50.0,44.6,38.0,98,90,71,30.15,30.05,8,2,12,0.00
2013-3-5,54.2,46.5,36.8,48.0,42.6,36.0,97,87,72,30.07,29.79,20,4,26,0.27
2013-3-6,56.8,49.1,38.9,49.0,43.1,38.0,96,81,58,30.06,29.80,16,4,34,0.14
2013-3-7,55.7,45.6,35.9,45.0,39.5,35.0,99,81,50,30.00,29.88,7,1,9,0.00
2013-3-8,65.4,50.3,38.6,48.0,40.8,36.0,91,72,40,30.03,29.84,7,1,13,0.00
2013-3-9,68.6,52.8,37.3,48.0,42.3,35.0,93,70,39,30.32,30.04,10,2,14,0.00
2013-3-10,69.1,51.7,37.6,49.0,42.1,36.0,94,73,34,30.35,30.24,9,2,15,0.00
2013-3-11,72.2,51.4,36.2,51.0,43.7,36.0,99,79,37,30.27,30.10,10,1,13,0.00
2013-3-12,73.3,53.8,41.3,59.0,48.2,41.0,99,83,55,30.16,30.07,9,2,12,0.00
2013-3-13,79.9,55.7,41.6,60.0,49.1,41.0,99,82,45,30.17,30.06,4,1,10,0.00
2013-3-14,70.3,54.8,44.8,58.0,49.5,44.0,98,84,61,30.17,30.08,8,1,14,0.00
2013-3-15,73.2,55.3,42.4,57.0,48.5,41.0,97,80,47,30.13,30.02,8,1,12,0.00
2013-3-16,76.5,57.7,42.3,55.0,45.4,38.0,98,69,26,30.12,30.01,13,2,18,0.00
2013-3-17,70.6,55.6,46.5,49.0,43.5,38.0,88,66,30,30.15,30.03,11,3,17,0.00
2013-3-18,68.8,52.3,39.8,49.0,44.0,38.0,93,76,46,30.12,30.01,6,1,12,0.00
2013-3-19,63.3,52.4,44.5,51.0,44.8,41.0,92,77,51,30.13,30.05,4,1,12,0.09
2013-3-20,59.7,52.1,47.2,56.0,50.7,46.0,99,95,84,30.13,30.05,11,2,13,0.43
2013-3-21,67.0,53.0,40.2,49.0,43.5,39.0,96,73,44,30.13,30.01,10,2,12,0.01
2013-3-22,69.4,54.1,42.2,44.0,37.9,32.0,86,58,26,30.12,30.02,11,2,14,0.00
2013-3-23,70.0,52.3,37.4,46.0,39.6,34.0,89,65,32,30.14,30.04,10,1,12,0.00
2013-3-24,70.2,51.2,39.0,52.0,44.1,38.0,96,79,50,30.09,29.96,9,2,12,0.00
2013-3-25,57.8,47.6,38.7,49.0,43.9,38.0,99,87,69,30.03,29.95,11,3,19,0.00
2013-3-26,64.2,50.5,40.9,53.0,45.4,40.0,99,84,60,30.00,29.94,10,2,16,0.00
2013-3-27,61.9,52.3,43.3,55.0,49.1,42.0,96,89,74,30.02,29.95,6,1,13,0.00
2013-3-28,66.1,55.5,48.5,58.0,52.2,48.0,97,89,72,30.08,30.01,5,1,7,0.06
2013-3-29,76.7,58.1,46.7,61.0,52.9,47.0,100,85,45,30.09,30.01,12,2,14,0.00
2013-3-30,67.5,55.9,50.1,57.0,52.7,49.0,98,89,69,30.07,29.99,8,1,12,0.10
2013-3-31,64.3,56.1,51.7,57.0,54.2,51.0,99,93,71,30.06,30.00,8,1,12,0.53
2013-4-1,63.8,55.2,48.1,57.0,52.6,47.0,100,91,72,30.15,30.04,5,1,11,0.08
2013-4-2,65.0,51.8,44.4,58.0,49.6,44.0,100,92,76,30.19,30.09,12,2,16,0.00
2013-4-3,74.6,53.6,46.1,62.0,50.6,46.0,100,91,53,30.14,29.99,13,2,15,0.00
2013-4-4,58.7,53.7,48.6,58.0,53.1,48.0,100,98,94,30.11,29.98,10,2,14,1.06
2013-4-5,63.8,55.9,52.3,56.0,53.7,51.0,100,92,70,30.18,30.11,9,2,13,0.02
2013-4-6,67.7,56.8,52.1,58.0,53.7,51.0,97,89,68,30.18,30.12,13,2,16,0.00
2013-4-7,63.3,55.5,49.3,56.0,51.6,47.0,98,87,67,30.17,29.81,15,3,19,0.06
2013-4-8,70.4,56.3,45.9,46.0,40.3,36.0,90,58,33,30.05,29.81,12,4,21,0.00
2013-4-9,79.1,63.3,46.1,46.0,39.7,23.0,80,49,13,30.12,30.03,16,4,21,0.00
2013-4-10,85.4,70.2,55.9,62.0,51.6,44.0,77,54,28,30.17,30.02,10,2,16,0.00
2013-4-11,77.2,62.4,49.8,56.0,49.5,45.0,86,64,40,30.06,29.82,9,3,13,0.00
2013-4-12,72.6,57.0,44.2,56.0,48.2,42.0,93,74,48,29.91,29.82,10,2,14,0.00
2013-4-13,74.9,58.4,44.5,54.0,46.2,39.0,95,67,37,29.91,29.80,11,2,16,0.00
2013-4-14,73.2,57.5,47.0,48.0,40.0,29.0,89,55,26,29.93,29.84,14,4,28,0.00
2013-4-15,62.6,51.5,42.2,44.0,37.6,32.0,95,63,35,29.97,29.85,21,4,25,0.00
2013-4-16,70.3,55.4,40.6,40.0,34.5,22.0,77,50,18,30.18,29.97,10,3,16,0.00
2013-4-17,72.7,58.2,43.1,45.0,33.9,21.0,76,45,15,30.27,30.17,15,3,22,0.00
2013-4-18,77.3,60.8,46.0,49.0,42.7,38.0,82,55,27,30.26,30.17,12,2,15,0.00
2013-4-19,81.0,62.2,44.9,58.0,48.9,43.0,93,65,33,30.23,30.07,10,2,19,0.00
2013-4-20,80.3,63.4,50.2,55.0,47.1,43.0,87,58,30,30.11,29.96,13,2,17,0.00
2013-4-21,81.4,64.6,46.5,58.0,49.2,44.0,93,62,30,30.03,29.91,12,2,15,0.00
2013-4-22,90.2,67.8,50.2,57.0,51.0,46.0,89,59,22,29.96,29.84,12,2,16,0.00
2013-4-23,83.2,66.2,45.9,51.0,36.0,20.0,96,42,12,29.91,29.85,18,5,21,0.00
2013-4-24,61.3,51.7,45.6,51.0,47.4,45.0,97,86,66,29.96,29.84,12,3,16,0.00
2013-4-25,63.4,54.3,48.9,53.0,48.7,47.0,92,82,66,30.12,29.97,12,2,14,0.00
2013-4-26,65.9,53.3,48.1,56.0,49.6,46.0,96,87,70,30.24,30.12,12,3,18,0.00
2013-4-27,71.7,54.4,46.5,58.0,49.9,45.0,99,86,61,30.23,30.07,10,2,15,0.00
2013-4-28,82.5,63.1,42.3,60.0,51.6,42.0,98,71,40,30.07,29.87,9,1,12,0.00
2013-4-29,86.9,72.7,55.7,60.0,53.0,49.0,82,52,35,29.89,29.75,12,2,16,0.00
2013-4-30,88.6,71.9,55.4,53.0,40.6,14.0,72,39,7,29.87,29.77,15,3,21,0.00
2013-5-1,87.4,73.2,55.8,47.0,27.1,15.0,59,22,9,30.07,29.85,18,5,25,0.00
2013-5-2,91.5,68.7,47.2,48.0,40.7,34.0,75,42,14,30.14,30.06,9,2,13,0.00
2013-5-3,89.1,67.4,49.2,57.0,43.3,34.0,68,45,22,30.07,29.79,12,2,14,0.00
2013-5-4,86.4,64.2,47.9,55.0,49.2,44.0,89,63,31,29.79,29.57,13,2,17,0.00
2013-5-5,65.4,58.4,54.7,53.0,50.9,50.0,87,76,62,29.82,29.63,12,2,14,0.00
2013-5-6,68.2,59.9,52.4,55.0,52.3,50.0,91,77,56,29.97,29.82,8,1,11,0.00
2013-5-7,71.8,60.2,51.4,57.0,53.7,50.0,97,80,55,30.04,29.97,11,3,16,0.00
2013-5-8,62.0,54.1,50.0,55.0,51.2,48.0,98,90,75,30.14,30.03,13,3,17,0.00
2013-5-9,64.9,55.6,48.7,55.0,51.1,47.0,96,86,68,30.17,30.08,16,4,18,0.00
2013-5-10,72.4,57.4,49.9,59.0,52.4,49.0,97,84,61,30.18,30.09,12,3,20,0.00
2013-5-11,82.0,60.2,47.5,63.0,53.2,47.0,99,81,49,30.14,30.05,10,3,14,0.00
2013-5-12,77.5,60.4,46.1,62.0,53.2,46.0,99,80,52,30.14,30.01,15,3,18,0.00
2013-5-13,80.3,63.2,47.1,63.0,53.9,47.0,99,75,48,30.08,29.93,14,2,16,0.00
2013-5-14,81.6,64.4,50.3,56.0,51.3,47.0,91,66,41,29.96,29.86,12,2,15,0.00
2013-5-15,77.7,59.3,45.6,54.0,48.3,44.0,94,70,37,30.02,29.95,11,2,16,0.00
2013-5-16,73.4,61.3,52.4,56.0,51.1,48.0,86,71,46,30.00,29.93,12,3,20,0.00
2013-5-17,69.9,57.6,44.8,51.0,46.9,43.0,94,70,47,30.06,29.96,12,2,18,0.00
2013-5-18,82.4,63.6,44.5,53.0,47.9,43.0,94,61,31,30.12,30.04,16,2,22,0.00
2013-5-19,83.8,68.1,54.0,51.0,47.7,42.0,75,52,23,30.12,29.96,12,3,18,0.00
2013-5-20,88.8,68.3,50.4,53.0,48.4,41.0,89,54,19,29.99,29.89,14,3,19,0.00
2013-5-21,75.6,61.0,48.8,49.0,44.5,38.0,92,59,28,29.99,29.89,15,4,22,0.00
2013-5-22,70.9,57.8,46.2,44.0,35.9,30.0,67,46,24,30.03,29.88,14,4,19,0.00
2013-5-23,71.4,58.6,44.4,48.0,42.4,39.0,83,57,34,30.00,29.91,12,3,17,0.00
2013-5-24,72.5,59.2,48.2,48.0,44.3,41.0,83,60,36,29.99,29.90,11,3,16,0.00
2013-5-25,71.6,58.3,43.5,51.0,46.2,41.0,92,67,41,30.02,29.94,13,3,18,0.00
2013-5-26,73.3,61.1,51.3,56.0,51.2,48.0,94,72,49,30.10,30.02,16,4,20,0.00
2013-5-27,63.5,56.5,48.3,59.0,52.4,46.0,98,86,73,30.11,29.98,8,2,12,0.20
2013-5-28,72.8,61.4,55.3,60.0,55.7,51.0,99,83,59,29.99,29.91,12,3,16,0.04
2013-5-29,76.7,64.8,55.3,58.0,53.6,49.0,88,69,41,29.96,29.86,13,3,17,0.00
2013-5-30,80.9,65.2,47.0,53.0,47.8,44.0,93,57,31,29.98,29.91,11,3,15,0.00
2013-5-31,87.9,70.7,54.5,57.0,50.1,46.0,75,51,26,30.00,29.89,11,2,15,0.00
2013-6-1,92.6,75.7,55.4,58.0,51.4,47.0,78,46,28,29.92,29.76,11,2,13,0.00
2013-6-2,82.5,68.9,53.6,56.0,51.5,48.0,85,56,39,29.77,29.63,13,3,18,0.00
2013-6-3,70.5,59.5,50.1,56.0,52.2,48.0,93,78,59,29.88,29.70,8,2,12,0.00
2013-6-4,65.0,57.2,53.4,55.0,52.5,51.0,92,84,70,29.98,29.86,10,2,17,0.00
2013-6-5,70.1,58.0,51.7,56.0,52.4,50.0,95,83,61,30.00,29.92,12,3,16,0.00
2013-6-6,74.8,58.1,50.4,59.0,52.6,49.0,97,84,55,29.96,29.85,12,3,17,0.00
2013-6-7,89.0,66.2,50.7,63.0,55.4,50.0,98,73,38,29.89,29.70,7,2,15,0.00
2013-6-8,89.7,68.4,56.0,64.0,56.8,53.0,92,70,41,29.84,29.70,11,2,18,0.00
2013-6-9,65.4,58.9,55.9,57.0,55.1,54.0,96,87,73,29.89,29.83,9,2,15,0.00
2013-6-10,62.3,58.3,54.8,58.0,55.2,53.0,98,89,78,29.96,29.80,6,1,11,0.06
2013-6-11,75.8,63.9,53.7,60.0,55.0,50.0,93,74,50,29.98,29.86,8,2,14,0.00
2013-6-12,84.8,66.7,48.6,53.0,46.5,36.0,93,54,18,29.98,29.89,11,3,20,0.00
2013-6-13,86.1,68.9,54.1,50.0,45.8,42.0,65,46,24,30.07,29.98,9,3,15,0.00
2013-6-14,86.3,68.7,50.8,52.0,48.4,42.0,88,52,22,29.99,29.80,12,3,19,0.00
2013-6-15,80.0,60.5,47.1,56.0,50.4,45.0,94,72,42,29.97,29.82,14,2,22,0.00
2013-6-16,84.2,65.4,47.0,57.0,50.8,45.0,95,64,36,30.05,29.97,12,2,19,0.00
2013-6-17,81.3,64.6,49.0,58.0,52.7,46.0,91,68,44,30.07,29.98,10,3,20,0.00
2013-6-18,74.1,63.5,52.1,53.0,50.2,46.0,92,64,37,30.00,29.92,17,4,18,0.00
2013-6-19,79.0,65.0,50.2,53.0,48.5,45.0,84,58,35,30.04,29.96,13,3,19,0.00
2013-6-20,81.6,67.1,55.5,52.0,48.6,46.0,75,54,30,30.01,29.89,15,3,16,0.00
2013-6-21,84.2,67.1,49.3,54.0,49.4,46.0,90,58,27,29.97,29.87,12,2,17,0.00
2013-6-22,88.4,72.4,55.3,54.0,50.8,47.0,76,50,27,29.91,29.80,11,3,18,0.00
2013-6-23,67.7,61.6,56.2,62.0,57.4,53.0,95,86,74,29.85,29.80,12,3,22,0.00
2013-6-24,63.3,58.7,55.9,60.0,57.0,55.0,98,94,86,29.89,29.79,8,1,10,0.18
2013-6-25,64.5,61.9,59.3,64.0,61.6,59.0,100,99,98,29.98,29.86,8,1,13,1.46
2013-6-26,80.4,68.6,61.2,68.0,63.7,60.0,100,86,57,30.05,29.96,10,2,11,0.05
2013-6-27,91.2,70.7,57.0,66.0,61.3,57.0,99,76,41,30.08,29.98,9,2,14,0.00
2013-6-28,95.6,78.4,59.9,69.0,63.2,58.0,95,64,38,30.02,29.86,9,2,16,0.00
2013-6-29,100.1,81.4,60.7,65.0,61.4,56.0,87,55,30,29.90,29.76,9,1,13,0.00
2013-6-30,91.5,74.0,57.6,64.0,59.3,54.0,90,64,38,29.82,29.72,12,2,17,0.00
2013-7-1,96.4,73.2,56.0,67.0,59.3,54.0,94,66,35,29.82,29.77,10,2,13,0.00
2013-7-2,92.2,71.3,58.4,66.0,59.8,56.0,94,69,42,29.91,29.80,12,2,14,0.00
2013-7-3,87.2,69.9,57.7,66.0,59.6,56.0,95,73,47,29.90,29.76,10,2,15,0.00
2013-7-4,97.3,78.7,62.1,66.0,58.8,46.0,84,55,20,29.80,29.64,11,3,17,0.00
2013-7-5,82.6,66.7,53.0,59.0,53.6,49.0,87,65,44,29.73,29.66,15,3,16,0.00
2013-7-6,76.6,60.6,52.7,60.0,53.8,51.0,95,80,55,29.78,29.73,7,2,12,0.00
2013-7-7,76.7,60.3,52.5,60.0,54.4,51.0,96,82,55,29.86,29.78,13,3,14,0.00
2013-7-8,78.9,59.9,52.4,60.0,54.3,51.0,97,84,53,29.97,29.86,8,2,12,0.00
2013-7-9,88.8,66.2,50.8,61.0,54.8,50.0,99,72,34,30.03,29.92,9,2,12,0.00
2013-7-10,75.8,59.2,50.4,58.0,52.9,50.0,98,82,51,29.98,29.89,11,4,16,0.00
2013-7-11,72.5,56.5,49.8,57.0,52.2,49.0,98,87,56,29.95,29.86,8,2,14,0.00
2013-7-12,76.7,59.6,51.9,59.0,53.2,50.0,95,82,53,29.95,29.85,11,2,14,0.00
2013-7-13,81.1,62.2,47.5,60.0,53.1,47.0,97,75,47,29.95,29.89,10,2,14,0.00
2013-7-14,75.5,59.6,51.3,58.0,53.3,50.0,97,82,54,29.99,29.89,14,3,18,0.00
2013-7-15,68.2,55.3,49.4,57.0,52.1,49.0,99,90,64,29.93,29.84,10,2,15,0.00
2013-7-16,66.7,58.4,53.3,59.0,54.3,52.0,96,87,73,30.02,29.87,9,2,11,0.00
2013-7-17,76.1,61.0,51.1,61.0,55.5,50.0,97,84,58,30.09,30.01,9,2,15,0.00
2013-7-18,78.1,61.8,52.7,60.0,55.3,52.0,99,82,52,30.05,29.92,12,3,16,0.00
2013-7-19,84.3,62.3,51.0,62.0,54.4,50.0,99,79,47,29.94,29.80,12,2,18,0.00
2013-7-20,84.0,61.0,49.5,62.0,54.1,49.0,99,81,48,29.84,29.72,9,2,14,0.00
2013-7-21,80.3,62.4,52.2,61.0,54.3,51.0,95,78,49,29.89,29.76,12,2,14,0.00
2013-7-22,86.2,65.3,51.7,62.0,56.8,50.0,95,76,44,29.96,29.89,9,2,11,0.00
2013-7-23,77.7,65.6,57.8,62.0,57.7,55.0,92,77,57,29.99,29.93,9,3,10,0.00
2013-7-24,82.1,64.3,53.9,60.0,56.0,53.0,98,78,46,29.98,29.89,14,3,17,0.00
2013-7-25,74.7,60.4,52.3,58.0,54.3,52.0,98,82,56,30.02,29.91,13,4,19,0.00
2013-7-26,75.3,59.1,51.9,60.0,54.6,52.0,99,86,59,30.09,30.00,13,4,15,0.00
2013-7-27,74.9,58.7,52.0,59.0,54.4,51.0,99,87,57,30.03,29.87,9,3,14,0.00
2013-7-28,73.5,57.8,51.5,60.0,53.7,51.0,99,87,60,29.88,29.80,9,2,14,0.00
2013-7-29,73.7,58.9,53.8,58.0,53.9,52.0,94,84,58,30.02,29.83,7,2,11,0.00
2013-7-30,71.4,58.3,52.4,59.0,53.9,51.0,97,86,62,30.11,30.02,9,2,14,0.00
2013-7-31,74.0,60.9,52.4,59.0,54.5,51.0,99,81,56,30.08,29.95,15,2,17,0.00
2013-8-1,76.4,63.2,48.1,56.0,53.2,47.0,97,73,47,30.04,29.92,14,3,18,0.00
2013-8-2,82.9,63.4,49.2,58.0,52.8,48.0,96,72,41,29.96,29.86,11,2,18,0.00
2013-8-3,77.9,59.4,49.4,59.0,53.2,48.0,97,82,51,29.96,29.90,11,2,15,0.00
2013-8-4,72.1,57.3,51.2,59.0,53.1,51.0,98,87,60,30.00,29.95,12,3,18,0.00
2013-8-5,72.8,58.3,51.6,59.0,53.1,51.0,97,84,60,30.02,29.94,11,3,13,0.00
2013-8-6,71.9,59.0,51.4,57.0,53.7,51.0,97,84,59,30.04,29.97,12,2,15,0.00
2013-8-7,69.4,61.0,55.5,59.0,56.0,54.0,94,84,67,30.09,30.03,7,2,13,0.00
2013-8-8,72.7,60.7,53.1,60.0,56.0,52.0,98,86,64,30.03,29.93,12,3,16,0.01
2013-8-9,71.6,58.6,52.2,59.0,54.7,52.0,98,88,63,29.99,29.91,12,3,16,0.00
2013-8-10,74.2,61.6,55.9,60.0,56.8,55.0,95,85,60,30.04,29.98,12,3,16,0.00
2013-8-11,76.5,61.1,53.7,61.0,56.0,53.0,99,85,56,30.02,29.91,10,4,18,0.00
2013-8-12,79.7,61.0,52.2,60.0,54.8,52.0,99,83,49,29.99,29.92,11,3,15,0.00
2013-8-13,85.6,65.7,51.9,61.0,55.2,51.0,99,73,37,29.98,29.88,10,2,16,0.00
2013-8-14,87.8,67.3,50.4,61.0,55.3,49.0,95,70,33,29.96,29.85,14,2,18,0.00
2013-8-15,85.1,68.4,55.7,67.0,61.2,55.0,96,80,49,29.93,29.89,13,2,20,0.00
2013-8-16,86.1,67.4,55.8,67.0,59.8,55.0,99,80,48,29.96,29.91,12,3,16,0.00
2013-8-17,85.3,68.8,54.1,62.0,57.7,53.0,97,72,42,29.97,29.81,13,2,15,0.00
2013-8-18,90.2,71.9,55.8,65.0,58.9,54.0,94,68,39,29.87,29.75,9,2,13,0.00
2013-8-19,86.8,70.0,58.0,63.0,59.0,56.0,96,71,41,29.88,29.78,11,2,14,0.00
2013-8-20,82.9,64.8,58.0,64.0,59.3,57.0,97,84,49,29.89,29.81,8,2,12,0.00
2013-8-21,75.7,62.4,54.0,60.0,56.4,52.0,94,82,55,29.94,29.86,11,2,13,0.00
2013-8-22,72.1,60.8,54.1,59.0,55.6,52.0,97,84,61,29.97,29.89,12,3,16,0.00
2013-8-23,76.6,63.3,55.9,60.0,56.3,54.0,95,80,56,29.91,29.77,13,2,17,0.00
2013-8-24,78.4,63.6,50.5,60.0,56.2,49.0,98,79,52,29.87,29.80,17,4,21,0.00
2013-8-25,78.3,66.6,60.0,65.0,60.8,58.0,93,82,63,29.93,29.86,12,3,16,0.00
2013-8-26,79.9,66.3,57.6,62.0,58.2,54.0,98,78,47,30.00,29.87,15,3,16,0.00
2013-8-27,84.2,66.0,51.9,61.0,56.0,50.0,95,73,41,29.89,29.80,15,2,18,0.00
2013-8-28,81.5,65.7,54.3,66.0,60.0,54.0,99,84,56,29.93,29.84,13,3,15,0.00
2013-8-29,82.3,67.7,59.8,66.0,62.2,59.0,99,84,58,30.04,29.93,14,3,17,0.00
2013-8-30,89.9,71.8,57.1,65.0,60.8,57.0,98,72,39,30.02,29.88,13,2,15,0.00
2013-8-31,81.3,65.4,52.4,61.0,57.1,51.0,95,77,49,29.95,29.86,13,4,18,0.00
2013-9-1,80.1,65.2,54.3,63.0,58.2,54.0,98,80,49,29.93,29.86,12,3,17,0.00
2013-9-2,81.5,68.3,58.0,65.0,61.3,57.0,96,80,55,29.93,29.86,12,2,16,0.00
2013-9-3,81.1,66.5,53.2,61.0,56.7,52.0,97,74,39,29.97,29.89,12,2,16,0.00
2013-9-4,82.8,67.1,53.0,61.0,57.2,52.0,97,74,44,30.01,29.89,11,2,15,0.00
2013-9-5,85.6,69.2,52.6,60.0,55.7,51.0,95,66,37,29.98,29.91,10,2,15,0.00
2013-9-6,93.4,72.9,53.5,58.0,52.9,49.0,90,54,25,29.97,29.82,8,1,15,0.00
2013-9-7,95.8,73.2,54.1,55.0,51.5,45.0,82,52,18,29.86,29.78,10,2,16,0.00
2013-9-8,88.4,67.0,52.8,60.0,54.8,51.0,99,70,33,29.87,29.75,9,2,14,0.00
2013-9-9,92.4,65.6,50.4,60.0,54.6,49.0,96,73,33,29.80,29.68,15,3,19,0.00
2013-9-10,75.5,62.8,56.4,64.0,59.3,56.0,98,89,64,29.89,29.72,12,2,15,0.00
2013-9-11,71.2,64.5,61.3,62.0,60.4,60.0,97,87,71,29.99,29.89,5,1,9,0.00
2013-9-12,78.4,64.6,57.1,65.0,59.8,56.0,96,85,60,29.97,29.86,12,2,17,0.00
2013-9-13,78.1,62.4,54.6,62.0,56.8,53.0,99,84,53,29.89,29.73,17,2,18,0.00
2013-9-14,76.2,61.2,52.9,61.0,55.8,52.0,98,84,58,29.81,29.70,16,3,19,0.00
2013-9-15,78.6,63.3,51.2,61.0,56.6,50.0,98,81,53,29.84,29.75,12,2,16,0.00
2013-9-16,84.2,65.5,53.2,62.0,56.8,52.0,99,77,43,29.88,29.74,13,2,15,0.00
2013-9-17,81.2,66.0,51.1,56.0,52.9,50.0,96,66,38,29.87,29.79,12,2,19,0.00
2013-9-18,84.2,68.5,55.3,52.0,49.8,46.0,79,55,27,29.90,29.79,10,2,14,0.00
2013-9-19,88.6,65.3,48.9,54.0,48.7,44.0,88,61,24,29.85,29.73,11,2,13,0.00
2013-9-20,78.2,61.2,46.4,63.0,55.2,45.0,95,82,56,29.83,29.75,15,3,21,0.00
2013-9-21,70.7,62.4,54.7,64.0,58.0,53.0,99,87,57,29.88,29.77,17,3,17,0.53
2013-9-22,76.2,61.7,47.8,57.0,52.9,47.0,98,76,43,29.99,29.88,12,2,14,0.00
2013-9-23,84.3,66.6,53.1,62.0,56.6,51.0,92,73,44,30.01,29.90,9,1,14,0.00
2013-9-24,80.1,65.6,56.1,57.0,53.0,49.0,92,67,36,29.96,29.86,8,2,15,0.00
2013-9-25,73.9,61.7,50.9,50.0,46.7,42.0,88,61,32,29.93,29.80,15,3,16,0.00
2013-9-26,78.2,62.3,49.2,46.0,42.6,38.0,75,52,24,29.99,29.84,12,2,16,0.00
2013-9-27,81.3,64.2,49.4,48.0,42.2,36.0,75,49,20,30.08,29.99,6,1,11,0.00
2013-9-28,82.4,61.9,45.8,57.0,47.1,41.0,91,64,25,30.08,29.99,12,2,18,0.00
2013-9-29,71.7,62.4,54.4,64.0,59.4,52.0,98,90,74,30.08,30.03,9,2,13,0.02
2013-9-30,73.9,63.5,53.5,66.0,61.0,50.0,100,92,73,30.04,29.96,8,2,13,0.02
2013-10-1,80.3,61.3,45.6,53.0,49.2,44.0,97,69,34,30.00,29.89,11,1,11,0.00
2013-10-2,78.4,63.5,53.3,51.0,47.5,42.0,83,59,27,30.01,29.91,8,2,16,0.00
2013-10-3,75.6,63.0,46.7,43.0,35.3,24.0,76,42,15,30.08,29.96,20,4,27,0.00
2013-10-4,82.5,71.8,61.3,31.0,28.3,26.0,32,20,13,30.07,30.00,16,6,25,0.00
2013-10-5,85.8,65.8,46.1,42.0,33.5,29.0,57,33,14,30.18,30.07,9,1,13,0.00
2013-10-6,86.2,63.6,43.6,43.0,36.1,32.0,71,41,15,30.11,29.99,11,1,13,0.00
2013-10-7,84.3,62.3,45.9,48.0,39.9,28.0,72,49,13,29.99,29.84,9,1,13,0.00
2013-10-8,78.9,60.5,45.2,50.0,45.2,42.0,90,61,29,29.91,29.70,11,1,13,0.00
2013-10-9,73.4,61.1,50.5,45.0,44.0,41.0,78,56,35,29.75,29.61,12,2,15,0.00
2013-10-10,73.5,57.3,46.5,52.0,45.8,41.0,95,68,39,30.00,29.74,7,1,11,0.00
2013-10-11,68.8,52.0,45.2,51.0,47.5,44.0,99,86,53,30.09,29.97,8,1,12,0.00
2013-10-12,70.8,54.2,40.1,52.0,45.9,40.0,99,77,49,30.01,29.87,11,2,15,0.00
2013-10-13,76.2,58.0,43.4,50.0,44.6,41.0,94,65,31,30.06,29.92,7,1,15,0.00
2013-10-14,81.4,58.9,41.5,47.0,41.6,39.0,92,59,23,30.11,29.99,9,1,13,0.00
2013-10-15,85.4,60.4,42.1,44.0,37.6,34.0,83,49,16,30.04,29.93,7,1,11,0.00
2013-10-16,85.2,60.5,42.5,41.0,36.3,34.0,75,46,17,30.08,29.98,7,1,11,0.00
2013-10-17,84.0,59.7,42.4,41.0,37.5,35.0,78,49,19,30.08,29.95,8,1,13,0.00
2013-10-18,79.5,57.1,42.0,48.0,44.1,40.0,96,67,30,30.04,29.97,7,1,11,0.00
2013-10-19,86.2,58.6,41.2,49.0,43.6,40.0,95,65,22,30.07,29.97,6,1,9,0.00
2013-10-20,79.2,54.6,40.7,51.0,45.3,39.0,97,76,35,30.01,29.90,12,2,13,0.00
2013-10-21,73.9,54.3,45.3,53.0,48.2,44.0,99,83,49,30.00,29.90,4,1,8,0.00
2013-10-22,78.1,53.9,44.9,55.0,48.2,44.0,99,84,44,30.02,29.91,6,1,10,0.00
2013-10-23,74.6,52.1,44.8,54.0,47.9,44.0,99,88,43,29.97,29.88,10,2,14,0.00
2013-10-24,66.3,52.4,45.9,52.0,48.5,45.0,99,88,59,30.09,29.96,8,1,11,0.00
2013-10-25,71.0,53.0,41.3,53.0,46.6,41.0,99,81,52,30.17,30.07,8,1,9,0.00
2013-10-26,82.6,56.6,40.9,51.0,45.6,40.0,98,72,30,30.14,30.00,7,1,10,0.00
2013-10-27,62.2,51.2,43.3,52.0,47.1,42.0,99,87,64,30.02,29.63,12,3,17,0.00
2013-10-28,65.8,53.0,40.6,48.0,44.3,39.0,94,74,47,29.81,29.66,10,1,12,0.00
2013-10-29,65.4,52.4,43.6,50.0,46.2,42.0,96,81,56,30.04,29.81,6,1,9,0.00
2013-10-30,68.6,51.1,38.4,50.0,43.3,38.0,98,77,49,30.14,30.04,6,1,10,0.00
2013-10-31,76.1,54.3,38.8,49.0,43.0,37.0,95,69,37,30.17,30.05,7,1,9,0.00
2013-11-1,79.4,57.7,42.0,50.0,44.4,40.0,93,66,33,30.14,30.00,11,1,11,0.00
2013-11-2,73.0,56.9,42.9,56.0,46.3,40.0,91,70,42,30.02,29.87,10,2,13,0.00
2013-11-3,65.9,53.8,44.4,41.0,36.6,32.0,77,55,30,30.05,29.92,10,2,15,0.00
2013-11-4,72.1,56.8,44.3,39.0,34.7,23.0,78,49,16,30.09,29.92,14,3,21,0.00
2013-11-5,77.4,58.8,44.8,42.0,38.4,35.0,71,49,25,30.20,30.07,6,1,9,0.00
2013-11-6,76.5,58.2,44.7,45.0,40.4,38.0,80,54,28,30.25,30.15,9,1,13,0.00
2013-11-7,75.5,58.7,48.4,51.0,44.0,40.0,90,61,31,30.16,30.05,9,1,11,0.00
2013-11-8,75.8,55.4,42.6,54.0,46.2,40.0,96,75,39,30.07,29.94,13,1,15,0.00
2013-11-9,75.1,52.9,37.5,51.0,44.2,37.0,98,77,34,30.05,29.94,11,2,14,0.00
2013-11-10,68.0,52.3,43.1,53.0,48.1,42.0,99,87,58,30.11,30.01,6,1,10,0.00
2013-11-11,67.1,54.5,43.6,52.0,48.9,43.0,97,83,58,30.18,30.07,5,0,11,0.00
2013-11-12,74.9,58.9,50.0,52.0,49.0,45.0,89,72,37,30.27,30.14,7,1,8,0.00
2013-11-13,78.5,56.5,44.2,56.0,49.3,43.0,98,80,44,30.25,30.09,8,1,13,0.00
2013-11-14,65.2,52.5,45.5,55.0,48.1,37.0,99,86,51,30.10,29.88,5,0,7,0.00
2013-11-15,67.5,54.6,44.0,43.0,40.2,36.0,84,60,38,29.87,29.71,9,2,11,0.00
2013-11-16,68.6,52.8,39.4,50.0,43.3,37.0,93,73,45,29.91,29.76,9,2,16,0.00
2013-11-17,64.0,49.2,38.6,52.0,45.3,38.0,98,87,64,30.07,29.91,4,0,6,0.00
2013-11-18,59.7,48.2,37.6,50.0,44.7,37.0,99,88,67,30.16,30.07,6,1,9,0.00
2013-11-19,57.7,54.2,50.3,56.0,53.4,49.0,99,97,91,30.09,29.91,3,0,8,0.64
2013-11-20,59.0,55.3,50.0,58.0,55.0,50.0,100,99,94,29.91,29.83,7,2,11,0.46
2013-11-21,63.5,56.7,49.2,50.0,32.9,17.0,100,51,19,29.96,29.88,27,6,28,0.00
2013-11-22,73.5,65.2,54.3,17.0,11.4,5.0,19,12,8,30.00,29.86,24,7,35,0.00
2013-11-23,66.6,57.2,41.2,38.0,26.1,13.0,67,33,14,30.09,29.94,13,3,18,0.00
2013-11-24,65.9,47.0,34.0,47.0,37.6,30.0,93,72,39,30.25,30.09,9,1,11,0.00
2013-11-25,65.8,47.9,34.2,47.0,41.1,34.0,98,80,48,30.33,30.24,5,1,7,0.00
2013-11-26,64.3,48.8,38.0,47.0,41.7,37.0,97,79,49,30.27,30.03,5,0,6,0.00
2013-11-27,69.3,50.1,37.4,48.0,42.1,36.0,96,76,42,30.04,29.82,9,0,11,0.00
2013-11-28,72.4,51.4,38.9,47.0,42.1,37.0,96,74,39,30.06,29.86,6,1,9,0.00
2013-11-29,70.5,51.2,38.7,48.0,42.9,37.0,95,76,41,30.21,30.06,7,1,9,0.00
2013-11-30,71.3,51.9,41.5,50.0,44.2,39.0,95,77,42,30.27,30.18,6,0,7,0.00
2013-12-1,73.2,52.9,38.9,50.0,44.6,38.0,97,77,40,30.33,30.21,4,0,5,0.00
2013-12-2,67.3,52.3,37.6,54.0,46.9,37.0,98,83,54,30.21,29.95,9,2,13,0.00
2013-12-3,57.0,49.8,40.6,53.0,36.3,30.0,95,62,36,29.94,29.82,10,2,18,0.00
2013-12-4,55.4,41.3,30.4,33.0,29.1,24.0,88,65,30,30.08,29.94,6,1,8,0.00
2013-12-5,52.5,35.7,23.0,33.0,26.0,20.0,93,71,34,30.16,30.08,4,0,7,0.00
2013-12-6,48.1,37.9,24.5,47.0,32.8,23.0,98,84,47,30.18,29.89,11,1,28,0.65
2013-12-7,46.8,38.7,29.1,43.0,31.0,24.0,99,77,45,30.26,29.92,12,2,20,0.00
2013-12-8,49.1,34.5,25.9,31.0,25.3,20.0,95,72,38,30.32,30.22,3,0,7,0.00
2013-12-9,51.0,34.3,22.9,31.0,24.5,20.0,91,71,37,30.42,30.31,8,1,13,0.00
2013-12-10,55.0,36.7,23.2,32.0,27.2,21.0,91,71,38,30.42,30.20,5,0,5,0.00
2013-12-11,58.6,40.2,27.4,37.0,31.7,25.0,94,74,43,30.25,30.17,6,0,8,0.00
2013-12-12,61.7,42.0,28.4,37.0,32.9,27.0,95,74,38,30.27,30.16,3,0,6,0.00
2013-12-13,66.1,43.6,28.7,39.0,34.7,28.0,97,74,36,30.34,30.23,3,0,4,0.00
2013-12-14,63.3,44.5,31.8,44.0,37.4,30.0,97,79,46,30.40,30.30,7,0,11,0.00
2013-12-15,66.0,44.3,30.6,41.0,36.3,30.0,98,77,38,30.36,30.23,3,0,4,0.00
2013-12-16,68.4,46.7,33.3,44.0,38.5,32.0,95,76,42,30.24,30.12,6,0,11,0.00
2013-12-17,66.8,47.5,36.2,45.0,39.6,34.0,94,76,45,30.18,30.03,3,0,6,0.00
2013-12-18,60.3,47.0,37.2,48.0,41.7,35.0,94,83,55,30.03,29.76,7,1,10,0.00
2013-12-19,61.3,52.1,42.3,40.0,29.8,15.0,82,48,21,29.93,29.73,12,4,21,0.00
2013-12-20,68.0,51.7,36.3,40.0,28.4,22.0,64,44,18,30.00,29.91,3,1,7,0.00
2013-12-21,68.9,55.3,43.7,51.0,45.9,40.0,90,72,47,30.07,29.96,8,1,10,0.00
2013-12-22,67.3,49.3,38.6,46.0,41.3,37.0,97,77,43,30.28,30.07,6,0,10,0.00
2013-12-23,67.7,48.6,35.2,45.0,40.2,34.0,95,75,44,30.39,30.27,4,0,7,0.00
2013-12-24,71.5,50.5,38.5,47.0,42.0,37.0,95,76,41,30.33,30.19,4,0,6,0.00
2013-12-25,68.8,47.0,34.3,44.0,39.0,33.0,98,77,40,30.30,30.19,4,0,7,0.00
2013-12-26,69.1,46.6,31.9,44.0,37.2,30.0,94,73,37,30.26,30.15,4,0,7,0.00
2013-12-27,57.7,43.4,33.3,40.0,35.7,31.0,92,76,51,30.23,30.12,1,0,3,0.00
2013-12-28,71.8,47.6,29.6,40.0,33.3,26.0,95,63,28,30.15,30.02,5,0,11,0.00
2013-12-29,65.9,48.1,33.8,37.0,31.9,27.0,80,56,30,30.18,30.07,6,1,11,0.00
2013-12-30,65.6,45.9,31.5,40.0,34.2,28.0,88,66,39,30.25,30.16,3,0,6,0.00
2013-12-31,65.0,45.4,35.7,44.0,37.5,33.0,92,77,42,30.27,30.15,3,0,6,0.00
2014-1-1,68.1,46.4,31.8,42.0,36.2,30.0,95,72,31,30.20,30.11,4,0,6,0.00
2014-1-2,67.0,48.3,35.4,41.0,37.3,32.0,91,69,39,30.18,30.04,2,0,5,0.00